createdAt,value
2023-01-08T10:33:38.869Z,0.40
2023-01-08T10:36:09.117Z,0.40
2023-01-08T10:38:48.711Z,0.40
2023-01-08T10:41:16.293Z,0.70
2023-01-08T10:43:54.165Z,0.90
2023-01-08T10:46:27.532Z,0.80
2023-01-08T10:49:00.672Z,0.80
2023-01-08T10:51:30.334Z,0.80
2023-01-08T10:54:01.939Z,1.00
2023-01-08T10:56:31.676Z,0.80
2023-01-08T10:58:58.779Z,0.80
2023-01-08T11:01:27.445Z,0.90
2023-01-08T11:04:00.268Z,1.10
2023-01-08T11:06:32.903Z,1.20
2023-01-08T11:09:22.300Z,1.30
2023-01-08T11:14:35.357Z,1.40
2023-01-08T11:17:10.394Z,1.40
2023-01-08T11:19:37.845Z,1.50
2023-01-08T11:22:25.306Z,1.50
2023-01-08T11:24:54.292Z,1.70
2023-01-08T11:27:30.999Z,1.50
2023-01-08T11:30:07.205Z,1.60
2023-01-08T11:32:37.336Z,1.50
2023-01-08T11:35:22.051Z,1.60
2023-01-08T11:37:58.503Z,1.50
2023-01-08T11:40:31.547Z,1.50
2023-01-08T11:43:36.240Z,1.90
2023-01-08T11:46:27.338Z,1.80
2023-01-08T11:49:03.502Z,1.90
2023-01-08T11:52:10.637Z,1.90
2023-01-08T11:55:21.073Z,1.90
2023-01-08T11:58:10.411Z,2.20
2023-01-08T12:00:58.996Z,2.20
2023-01-08T12:03:26.228Z,2.40
2023-01-08T12:06:01.510Z,2.20
2023-01-08T12:08:48.898Z,2.40
2023-01-08T12:11:31.960Z,2.70
2023-01-08T12:14:05.186Z,2.80
2023-01-08T12:17:09.671Z,2.70
2023-01-08T12:19:54.761Z,2.70
2023-01-08T12:22:43.572Z,2.60
2023-01-08T12:25:29.555Z,2.60
2023-01-08T12:28:06.045Z,2.40
2023-01-08T12:30:53.092Z,2.30
2023-01-08T12:33:32.054Z,2.50
2023-01-08T12:36:02.860Z,2.50
2023-01-08T12:38:40.219Z,2.50
2023-01-08T12:41:12.818Z,2.30
2023-01-08T12:44:04.783Z,2.70
2023-01-08T12:46:37.869Z,2.70
2023-01-08T12:49:07.008Z,2.50
2023-01-08T12:51:50.417Z,2.90
2023-01-08T12:54:25.221Z,2.60
2023-01-08T12:57:18.996Z,3.00
2023-01-08T12:59:48.639Z,2.80
2023-01-08T13:02:37.412Z,2.80
2023-01-08T13:05:29.289Z,2.80
2023-01-08T13:08:05.277Z,3.00
2023-01-08T13:10:39.416Z,2.70
2023-01-08T13:13:23.122Z,2.60
2023-01-08T13:16:19.385Z,2.80
2023-01-08T13:18:57.566Z,2.80
2023-01-08T13:21:52.742Z,2.60
2023-01-08T13:24:49.348Z,2.50
2023-01-08T13:27:19.166Z,2.60
2023-01-08T13:29:48.310Z,2.40
2023-01-08T13:32:46.996Z,2.50
2023-01-08T13:35:17.110Z,2.20
2023-01-08T13:37:46.933Z,2.10
2023-01-08T13:40:36.451Z,2.20
2023-01-08T13:43:12.926Z,2.10
2023-01-08T13:45:41.304Z,2.10
2023-01-08T13:48:22.360Z,2.20
2023-01-08T13:50:49.939Z,2.20
2023-01-08T13:53:17.782Z,1.80
2023-01-08T13:56:04.117Z,2.10
2023-01-08T13:58:51.592Z,1.80
2023-01-08T14:01:19.174Z,1.90
2023-01-08T14:03:48.190Z,2.00
2023-01-08T14:06:21.456Z,1.80
2023-01-08T14:08:51.741Z,1.80
2023-01-08T16:06:14.748Z,1.80
2023-01-08T16:08:46.256Z,2.00
2023-01-08T16:11:14.049Z,2.10
2023-01-08T16:13:41.161Z,2.00
2023-01-08T16:16:16.122Z,2.00
2023-01-08T16:18:43.184Z,2.30
2023-01-08T16:21:11.326Z,2.10
2023-01-08T16:23:39.553Z,2.00
2023-01-08T16:26:07.828Z,2.00
2023-01-08T16:28:35.288Z,2.10
2023-01-08T16:31:02.466Z,1.90
2023-01-08T16:33:29.701Z,2.10
2023-01-08T16:36:02.425Z,2.10
2023-01-08T16:38:29.649Z,2.00
2023-01-08T16:40:57.404Z,2.10
2023-01-08T16:43:25.720Z,2.10
2023-01-08T16:45:52.936Z,2.00
